Taipu, Brazil
Current Conditions -  °F | °C
As of 5:00 PM on Thursday 23 Oct 2014 (Local Time) from SBNT Reporting Station
Broken Clouds Broken Clouds  
Wind Chill: 79°   Ceiling: 2000
Heat Index: 81°   Visibility: 6mi
Dew Point: 70°   Wind: 21mph
Humidity: 74%   Direction: 120°ESE
Pressure: 29.91"   Gusts: NA
Location:  5.62°S, 35.6°W
Report Text: SBNT 232000Z 12018KT 9999 BKN020 26/21 Q1013
Loading
Personal Weather Stations






























Interactive Weather Map
Tropical Storm Tracking
New forecast layout! Learn more

10-Day Weather Forecast

Advertisements
Track Severe Weather on mobile